METAR Data
IDs: Format: Raw Decoded Include TAF

Data at: 0142 UTC 24 Sep 2018

KM91 240135Z AUTO 16004KT 6SM BR FEW005 BKN040 OVC075 22/21 A3004 RMK A01
KM91 240115Z AUTO 15004KT 6SM BR BKN005 BKN028 OVC048 22/21 A3003 RMK A01
KM91 240055Z AUTO 00000KT 5SM BR OVC006 22/21 A3002 RMK A01
KM91 240035Z AUTO 00000KT 9SM OVC006 22/21 A3001 RMK A01
KM91 240015Z AUTO 00000KT 10SM SCT005 SCT029 OVC075 22/22 A3001 RMK A01
KM91 232355Z AUTO 00000KT 9SM SCT040 OVC075 22/22 A3001 RMK A01
KM91 232335Z AUTO 00000KT 6SM BR FEW004 SCT040 BKN075 22/22 A3001 RMK A01
KM91 232315Z AUTO 00000KT 6SM BR SCT005 BKN010 OVC075 22/22 A3000 RMK A01
KM91 232255Z AUTO 00000KT 7SM BKN007 OVC010 22/22 A3000 RMK A01
KM91 232235Z AUTO 00000KT 5SM BR SCT007 SCT037 OVC065 22/22 A3000 RMK A01
KM91 232215Z AUTO 00000KT 6SM BR FEW010 SCT040 BKN065 22/22 A3001 RMK A01
KM91 232155Z AUTO 00000KT 6SM BR FEW006 BKN016 OVC090 22/22 A3001 RMK A01
KM91 232135Z AUTO 07003KT 8SM FEW005 SCT010 BKN017 22/21 A3001 RMK A01
KM91 232115Z AUTO 00000KT 9SM FEW006 BKN010 OVC015 22/21 A3001 RMK A01
KM91 232055Z AUTO 00000KT 9SM BKN006 OVC015 22/21 A3001 RMK A01
KM91 232035Z AUTO 07003KT 10SM OVC006 22/21 A3001 RMK A01
KM91 232015Z AUTO 00000KT 10SM OVC006 22/21 A3001 RMK A01
KM91 231955Z AUTO 00000KT 10SM OVC006 22/21 A3002 RMK A01
KM91 231935Z AUTO 04004KT 8SM OVC006 22/21 A3002 RMK A01
KM91 231915Z AUTO 03005KT 9SM OVC006 22/21 A3002 RMK A01
KM91 231855Z AUTO 04005KT 10SM OVC006 22/21 A3002 RMK A01
KM91 231835Z AUTO 00000KT 9SM OVC007 22/21 A3004 RMK A01
KM91 231815Z AUTO 00000KT 10SM OVC006 22/21 A3004 RMK A01
KM91 231755Z AUTO 00000KT 10SM BKN005 BKN018 BKN030 21/21 A3004 RMK A01
KM91 231735Z AUTO 00000KT 10SM BKN004 OVC017 21/20 A3005 RMK A01
KM91 231715Z AUTO 00000KT 10SM BKN004 OVC015 20/20 A3006 RMK A01
KM91 231655Z AUTO 14004KT 9SM BKN004 OVC012 20/20 A3006 RMK A01
KM91 231635Z AUTO 13004KT 10SM BKN004 BKN007 OVC011 20/20 A3007 RMK A01
KM91 231615Z AUTO 00000KT 9SM OVC005 20/19 A3007 RMK A01
KM91 231555Z AUTO 00000KT 10SM OVC004 19/19 A3008 RMK A01 P0001
KM91 231535Z AUTO 00000KT 10SM OVC004 19/19 A3007 RMK A01
KM91 231515Z AUTO 01003KT 9SM OVC004 19/19 A3007 RMK A01
KM91 231455Z AUTO 36004KT 10SM OVC004 19/19 A3006 RMK A01
KM91 231435Z AUTO 00000KT 5SM BR OVC004 19/19 A3005 RMK A01
KM91 231415Z AUTO 00000KT 3SM BR OVC004 18/18 A3005 RMK A01
KM91 231355Z AUTO 05003KT 4SM BR OVC004 18/18 A3004 RMK A01
KM91 231335Z AUTO 02004KT 6SM BR OVC003 18/18 A3005 RMK A01
KM91 231315Z AUTO 35005KT 2SM BR OVC003 18/18 A3004 RMK A01
KM91 231255Z AUTO 36005KT 4SM BR OVC003 18/18 A3003 RMK A01
KM91 231235Z AUTO 02004KT 2 1/2SM BR OVC003 19/19 A3003 RMK A01
KM91 231215Z AUTO 02004KT 4SM BR OVC003 19/18 A3002 RMK A01
KM91 231155Z AUTO 01003KT 3SM BR OVC003 19/18 A3002 RMK A01
KM91 231135Z AUTO 00000KT 2 1/2SM BR OVC003 18/18 A3002 RMK A01
KM91 231115Z AUTO 00000KT 2SM BR OVC003 18/18 A3001 RMK A01
KM91 231055Z AUTO 36004KT 2SM BR OVC003 18/18 A3001 RMK A01
KM91 231035Z AUTO 35003KT 2SM BR OVC003 19/19 A3001 RMK A01
KM91 231015Z AUTO 00000KT 3SM BR OVC003 19/19 A3001 RMK A01
KM91 230955Z AUTO 34003KT 3SM BR OVC003 19/19 A3000 RMK A01
KM91 230935Z AUTO 00000KT 2 1/2SM BR OVC003 19/19 A3000 RMK A01
KM91 230915Z AUTO 00000KT 2 1/2SM BR OVC003 19/18 A3001 RMK A01
KM91 230855Z AUTO 00000KT 1 1/4SM BR OVC003 18/18 A3001 RMK A01
KM91 230835Z AUTO VRB04KT 1 1/4SM BR OVC003 18/18 A3000 RMK A01
KM91 230815Z AUTO 00000KT 2 1/2SM BR OVC003 18/18 A3001 RMK A01
KM91 230755Z AUTO 00000KT 3SM BR OVC003 18/18 A3001 RMK A01
KM91 230735Z AUTO 00000KT 4SM BR OVC003 18/18 A3002 RMK A01
KM91 230715Z AUTO 01003KT 4SM BR OVC003 18/18 A3002 RMK A01
KM91 230655Z AUTO 01004KT 5SM BR OVC003 18/18 A3001 RMK A01
KM91 230635Z AUTO 02003KT 5SM BR OVC003 18/18 A3002 RMK A01
KM91 230615Z AUTO 00000KT 4SM BR OVC003 18/18 A3002 RMK A01
KM91 230555Z AUTO 04003KT 2 1/2SM BR OVC003 18/18 A3002 RMK A01
KM91 230535Z AUTO 00000KT 2 1/2SM BR OVC003 18/18 A3002 RMK A01
KM91 230515Z AUTO 00000KT 4SM BR OVC004 18/18 A3003 RMK A01
KM91 230455Z AUTO 00000KT 4SM BR OVC005 18/18 A3004 RMK A01
KM91 230435Z AUTO 03003KT 5SM BR OVC005 18/18 A3005 RMK A01
KM91 230415Z AUTO 00000KT 9SM OVC006 18/18 A3005 RMK A01
KM91 230355Z AUTO 05004KT 4SM BR OVC007 18/18 A3005 RMK A01
KM91 230335Z AUTO 05004KT 7SM OVC007 18/18 A3006 RMK A01
KM91 230315Z AUTO 00000KT 10SM OVC007 18/18 A3007 RMK A01
KM91 230255Z AUTO 10003KT 9SM OVC007 18/18 A3007 RMK A01
KM91 230235Z AUTO 00000KT 7SM OVC007 18/18 A3007 RMK A01
KM91 230215Z AUTO VRB03KT 5SM BR OVC007 18/17 A3006 RMK A01
KM91 230155Z AUTO 05005KT 6SM BR OVC008 18/17 A3007 RMK A01
KM91 230135Z AUTO 05008KT 10SM OVC007 18/17 A3006 RMK A01
KM91 230115Z AUTO 06006KT 10SM OVC007 18/17 A3006 RMK A01
KM91 230055Z AUTO 05008KT 10SM OVC007 18/18 A3005 RMK A01
KM91 230035Z AUTO 05006KT 10SM OVC006 18/18 A3005 RMK A01
KM91 230015Z AUTO VRB06KT 10SM OVC006 18/18 A3005 RMK A01
KM91 222355Z AUTO 04009KT 10SM OVC006 19/18 A3006 RMK A01
KM91 222335Z AUTO 05007KT 10SM OVC007 19/18 A3006 RMK A01
KM91 222315Z AUTO 06008KT 10SM OVC007 19/18 A3006 RMK A01
KM91 222255Z AUTO 04009KT 10SM OVC007 19/18 A3006 RMK A01
KM91 222235Z AUTO 04010KT 10SM OVC007 19/18 A3007 RMK A01
KM91 222215Z AUTO 02008G14KT 10SM OVC010 20/18 A3006 RMK A01
KM91 222155Z AUTO 04008KT 10SM OVC011 20/18 A3006 RMK A01
KM91 222135Z AUTO 03010G15KT 10SM BKN012 BKN042 20/18 A3006 RMK A01
KM91 222115Z AUTO 03011G16KT 10SM FEW013 BKN040 21/18 A3005 RMK A01
KM91 222055Z AUTO 03012KT 10SM OVC039 21/18 A3004 RMK A01
KM91 222035Z AUTO 03012KT 10SM OVC038 21/18 A3005 RMK A01
KM91 222015Z AUTO 04012KT 10SM BKN037 22/18 A3005 RMK A01
KM91 221955Z AUTO 04012G18KT 10SM OVC034 22/18 A3005 RMK A01
KM91 221935Z AUTO 03009KT 10SM OVC032 21/18 A3006 RMK A01
KM91 221915Z AUTO 03010KT 10SM OVC030 20/18 A3008 RMK A01
KM91 221855Z AUTO 04008KT 10SM FEW007 OVC028 19/18 A3009 RMK A01
KM91 221835Z AUTO VRB06KT 10SM BKN007 OVC026 19/18 A3010 RMK A01
KM91 221815Z AUTO 04008KT 10SM OVC006 19/18 A3011 RMK A01
KM91 221755Z AUTO 03008KT 10SM OVC007 19/18 A3012 RMK A01
KM91 221735Z AUTO 02009KT 10SM OVC007 19/18 A3012 RMK A01
KM91 221715Z AUTO 01011KT 10SM OVC007 19/18 A3013 RMK A01
KM91 221655Z AUTO 34008KT 10SM OVC008 19/18 A3014 RMK A01 P0001
KM91 221635Z AUTO 02010KT 10SM OVC008 20/18 A3012 RMK A01
KM91 221615Z AUTO 02008KT 10SM OVC008 20/18 A3013 RMK A01
KM91 221555Z AUTO 03007KT 10SM OVC009 19/18 A3013 RMK A01
KM91 221535Z AUTO 04009KT 10SM OVC008 20/18 A3013 RMK A01
KM91 221515Z AUTO 03007KT 10SM OVC008 19/18 A3013 RMK A01
KM91 221455Z AUTO 05006KT 10SM OVC008 19/18 A3012 RMK A01
KM91 221435Z AUTO 03006G12KT 10SM OVC009 19/18 A3012 RMK A01
KM91 221415Z AUTO 04008KT 10SM OVC011 19/17 A3012 RMK A01
KM91 221355Z AUTO 02008KT 10SM OVC012 20/18 A3012 RMK A01